Smockville, Indiana
Current Conditions -  °F | °C
As of 5:35 PM on Monday 22 Dec 2014 (Local Time) from K4I7 Reporting Station
Light Rain Light Rain  
Wind Chill: 35°   Ceiling: 6000
Heat Index: 41°   Visibility: 5mi
Dew Point: 37°   Wind: 10mph
Humidity: 87%   Direction: 130°SE
Pressure: 29.72"   Gusts: NA
Location:  39.5774°N, 87.0605°W
Report Text: K4I7 222235Z AUTO 13009KT 5SM -RA OVC060 05/03 A2972 RMK AO2 P0002
Loading
Personal Weather Stations






























Interactive Weather Map New forecast layout! Learn more

10-Day Weather Forecast

Advertisements
Track Severe Weather on mobile